Time;durP1;ratioP1;P1;durP2;ratioP2;P2;SDS_P1;SDS_P2;PMS_P1;PMS_P2;Temp;Humidity;BMP_temperature;BMP_pressure;BME280_temperature;BME280_humidity;BME280_pressure;Samples;Min_cycle;Max_cycle;Signal;HPM_P1;HPM_P2
2021/07/06 00:01:29;;;;;;;0.10;0.10;;;;;;;24.61;43.59;100022.50;5133029;27;20050;-64
2021/07/06 00:03:55;;;;;;;0.10;0.10;;;;;;;24.60;43.71;100019.03;5133816;27;20068;-64
2021/07/06 00:06:21;;;;;;;0.38;0.22;;;;;;;24.59;43.76;100019.19;5134062;27;20095;-64
2021/07/06 00:08:47;;;;;;;0.20;0.20;;;;;;;24.64;43.62;100022.19;5134061;27;20042;-64
2021/07/06 00:11:13;;;;;;;0.10;0.10;;;;;;;24.63;43.68;100032.03;5134031;27;20074;-64
2021/07/06 00:13:39;;;;;;;0.20;0.20;;;;;;;24.56;43.74;100012.38;5133909;27;20047;-64
2021/07/06 00:16:05;;;;;;;0.13;0.13;;;;;;;24.61;43.51;100020.69;5133746;27;20054;-64
2021/07/06 00:18:31;;;;;;;0.10;0.10;;;;;;;24.60;43.81;100026.22;5115691;27;20612;-64
2021/07/06 00:21:00;;;;;;;0.17;0.17;;;;;;;24.57;43.76;100014.03;5133354;27;20051;-64
2021/07/06 00:23:29;;;;;;;0.10;0.10;;;;;;;24.56;43.73;100025.72;5133804;27;20064;-64
2021/07/06 00:25:55;;;;;;;0.73;0.73;;;;;;;24.57;43.73;100021.22;5133583;27;20039;-64
2021/07/06 00:28:23;;;;;;;0.10;0.10;;;;;;;24.56;43.90;100017.69;5133591;27;20046;-64
2021/07/06 00:30:50;;;;;;;0.10;0.10;;;;;;;24.54;43.84;100022.34;5133412;27;20066;-64
2021/07/06 00:33:30;;;;;;;0.25;0.25;;;;;;;24.53;43.85;100028.72;5133634;27;20132;-64
2021/07/06 00:36:06;;;;;;;5.15;0.70;;;;;;;24.50;44.19;100022.88;5133316;27;20039;-64
2021/07/06 00:38:32;;;;;;;0.25;0.25;;;;;;;24.47;44.13;100017.88;5132274;27;20039;-64
2021/07/06 00:40:59;;;;;;;0.10;0.10;;;;;;;24.49;44.05;100023.88;5132969;27;20062;-64
2021/07/06 00:43:26;;;;;;;0.10;0.10;;;;;;;24.47;44.06;100018.72;5133386;27;20501;-63
2021/07/06 00:45:56;;;;;;;0.20;0.20;;;;;;;24.42;44.02;100018.38;5133079;27;20126;-63
2021/07/06 00:48:22;;;;;;;;;;;;;;;24.46;44.38;100035.75;5133708;27;20039;-63
2021/07/06 00:50:48;;;;;;;0.10;0.10;;;;;;;24.43;44.23;100029.91;5131978;27;20389;-64
2021/07/06 00:53:14;;;;;;;0.10;0.10;;;;;;;24.35;44.35;100026.22;5132471;27;20077;-64
2021/07/06 00:55:40;;;;;;;0.20;0.20;;;;;;;24.41;44.43;100032.72;5132000;27;20463;-63
2021/07/06 00:58:06;;;;;;;0.35;0.35;;;;;;;24.36;44.39;100030.56;5131506;27;20042;-63
2021/07/06 01:00:32;;;;;;;0.10;0.10;;;;;;;24.32;44.39;100023.91;5133202;27;20035;-63
2021/07/06 01:02:59;;;;;;;0.10;0.10;;;;;;;24.36;44.42;100029.72;5132651;27;20453;-65
2021/07/06 01:05:25;;;;;;;0.20;0.20;;;;;;;24.41;44.42;100037.25;5133022;27;20039;-64
2021/07/06 01:07:51;;;;;;;0.10;0.10;;;;;;;24.39;44.52;100034.75;5132771;27;20050;-64
2021/07/06 01:10:17;;;;;;;0.45;0.45;;;;;;;24.38;44.77;100033.06;5131622;27;20039;-64
2021/07/06 01:12:46;;;;;;;0.10;0.10;;;;;;;24.34;44.67;100037.09;5132817;27;20039;-64
2021/07/06 01:15:15;;;;;;;0.30;0.30;;;;;;;24.32;44.58;100039.06;5131400;27;20074;-64
2021/07/06 01:17:43;;;;;;;0.25;0.25;;;;;;;24.27;44.71;100034.25;5132743;27;20047;-64
2021/07/06 01:20:14;;;;;;;0.20;0.20;;;;;;;24.32;44.48;100047.06;5132462;27;20068;-64
2021/07/06 01:22:41;;;;;;;0.50;0.50;;;;;;;24.33;44.74;100052.25;5132728;27;20577;-64
2021/07/06 01:25:08;;;;;;;0.10;0.10;;;;;;;24.36;44.75;100056.44;5131014;27;20035;-64
2021/07/06 01:27:34;;;;;;;0.15;0.15;;;;;;;24.44;44.55;100052.94;5132661;27;20524;-63
2021/07/06 01:30:00;;;;;;;0.32;0.32;;;;;;;24.46;44.46;100051.75;5130730;27;20077;-63
2021/07/06 01:32:26;;;;;;;0.10;0.10;;;;;;;24.45;44.38;100052.75;5132498;27;20510;-64
2021/07/06 01:34:52;;;;;;;1.85;1.15;;;;;;;24.50;44.58;100061.09;5132578;27;20525;-64
2021/07/06 01:37:19;;;;;;;0.10;0.10;;;;;;;24.55;44.39;100068.59;5132139;27;20039;-66
2021/07/06 01:39:45;;;;;;;0.20;0.20;;;;;;;24.54;44.47;100059.75;5132333;27;20031;-64
2021/07/06 01:42:16;;;;;;;0.30;0.30;;;;;;;24.56;44.39;100062.25;5130600;27;20043;-64
2021/07/06 01:44:42;;;;;;;0.20;0.20;;;;;;;24.68;44.20;100071.56;5113828;27;20073;-64
2021/07/06 01:47:08;;;;;;;0.17;0.17;;;;;;;24.67;44.26;100065.41;5131932;27;20073;-64
2021/07/06 01:49:35;;;;;;;0.13;0.13;;;;;;;24.72;44.33;100076.41;5132123;27;20071;-64
2021/07/06 01:52:01;;;;;;;0.20;0.20;;;;;;;25.12;43.50;100074.69;5130430;27;20054;-64
2021/07/06 01:54:27;;;;;;;0.10;0.10;;;;;;;25.13;43.17;100071.03;5132007;27;20035;-64
2021/07/06 01:56:52;;;;;;;0.13;0.13;;;;;;;25.12;43.35;100069.34;5132026;27;20050;-63
2021/07/06 01:59:18;;;;;;;0.10;0.10;;;;;;;25.22;43.28;100070.81;5130343;27;20046;-64
2021/07/06 02:01:44;;;;;;;0.10;0.10;;;;;;;25.75;42.48;100074.63;5131802;27;20043;-63
2021/07/06 02:04:11;;;;;;;0.10;0.10;;;;;;;26.17;41.62;100068.84;5129387;27;20043;-63
2021/07/06 02:06:36;;;;;;;0.17;0.17;;;;;;;26.45;41.03;100061.91;5130579;27;20578;-63
2021/07/06 02:09:03;;;;;;;0.10;0.10;;;;;;;26.82;40.61;100067.28;5131204;27;20042;-63
2021/07/06 02:11:30;;;;;;;0.10;0.10;;;;;;;27.13;39.83;100071.63;5131761;27;20043;-65
2021/07/06 02:13:56;;;;;;;0.10;0.10;;;;;;;27.41;39.28;100083.38;5131423;27;20047;-65
2021/07/06 02:16:22;;;;;;;0.20;0.20;;;;;;;27.68;38.84;100080.00;5131641;27;20408;-63
2021/07/06 02:18:48;;;;;;;0.17;0.17;;;;;;;27.81;38.71;100069.41;5130423;27;20039;-65
2021/07/06 02:21:14;;;;;;;0.25;0.25;;;;;;;28.00;38.19;100072.53;5131207;27;20043;-65
2021/07/06 02:23:40;;;;;;;0.10;0.10;;;;;;;28.24;37.93;100069.50;5131529;27;20153;-64
2021/07/06 02:26:07;;;;;;;0.10;0.10;;;;;;;28.42;37.63;100077.91;5131093;27;20039;-64
2021/07/06 02:28:33;;;;;;;0.10;0.10;;;;;;;28.59;37.63;100087.38;5131300;27;20042;-65
2021/07/06 02:30:59;;;;;;;0.30;0.30;;;;;;;28.74;37.47;100088.13;5130706;27;20141;-66
2021/07/06 02:33:31;;;;;;;0.10;0.10;;;;;;;28.89;37.16;100079.97;5131251;27;20425;-65
2021/07/06 02:35:58;;;;;;;0.68;0.68;;;;;;;29.07;37.15;100082.13;5130851;27;20058;-66
2021/07/06 02:38:24;;;;;;;0.10;0.10;;;;;;;29.21;36.46;100083.88;5131163;27;20117;-64
2021/07/06 02:40:50;;;;;;;0.15;0.15;;;;;;;29.34;36.46;100084.81;5131043;27;20099;-63
2021/07/06 02:43:16;;;;;;;0.10;0.10;;;;;;;29.45;36.16;100086.09;5130715;27;20078;-64
2021/07/06 02:45:42;;;;;;;0.80;0.80;;;;;;;29.57;35.68;100083.69;5131173;27;20043;-63
2021/07/06 02:48:09;;;;;;;0.82;0.80;;;;;;;29.70;35.86;100084.56;5130616;27;20470;-64
2021/07/06 02:50:39;;;;;;;0.10;0.10;;;;;;;29.83;35.47;100083.78;5129887;27;20043;-63
2021/07/06 02:53:06;;;;;;;0.10;0.10;;;;;;;29.95;35.24;100091.06;5130565;27;20031;-66
2021/07/06 02:55:32;;;;;;;0.10;0.10;;;;;;;30.03;35.42;100086.53;5130955;27;20035;-63
2021/07/06 02:57:58;;;;;;;0.30;0.30;;;;;;;30.14;34.86;100083.25;5112529;27;20448;-63
2021/07/06 03:00:26;;;;;;;0.10;0.10;;;;;;;30.24;35.01;100079.09;5129462;27;20051;-63
2021/07/06 03:03:03;;;;;;;0.10;0.10;;;;;;;30.44;34.62;100092.63;5129544;27;20046;-62
2021/07/06 03:05:30;;;;;;;0.10;0.10;;;;;;;30.54;34.26;100087.66;5130879;27;20148;-63
2021/07/06 03:07:57;;;;;;;0.10;0.10;;;;;;;30.59;34.29;100089.75;5129368;27;20099;-62
2021/07/06 03:10:27;;;;;;;0.20;0.20;;;;;;;30.69;34.12;100088.28;5130311;27;20437;-62
2021/07/06 03:12:53;;;;;;;0.10;0.10;;;;;;;30.83;34.06;100099.88;5129472;27;20111;-62
2021/07/06 03:15:21;;;;;;;0.20;0.20;;;;;;;30.91;33.98;100095.09;5130184;27;20043;-63
2021/07/06 03:17:47;;;;;;;0.20;0.20;;;;;;;30.97;33.81;100090.75;5130615;27;20134;-65
2021/07/06 03:20:14;;;;;;;0.10;0.10;;;;;;;31.09;33.81;100096.34;5130036;27;20047;-66
2021/07/06 03:22:40;;;;;;;0.28;0.28;;;;;;;31.18;33.63;100089.69;5112162;28;20042;-66
2021/07/06 03:25:07;;;;;;;0.57;0.57;;;;;;;31.29;33.39;100097.13;5130182;28;20043;-67
2021/07/06 03:27:34;;;;;;;0.10;0.10;;;;;;;31.41;33.15;100100.84;5130580;28;20039;-67
2021/07/06 03:30:00;;;;;;;0.28;0.28;;;;;;;31.53;33.00;100096.44;5130146;27;20122;-65
2021/07/06 03:32:26;;;;;;;0.10;0.10;;;;;;;31.63;32.90;100096.81;5129467;28;20095;-65
2021/07/06 03:34:52;;;;;;;0.00;0.00;;;;;;;31.74;32.77;100090.72;5130369;27;20039;-64
2021/07/06 03:37:18;;;;;;;0.52;0.52;;;;;;;31.84;32.59;100090.28;5130106;27;20062;-64
2021/07/06 03:39:43;;;;;;;0.30;0.30;;;;;;;31.91;32.44;100088.34;5130459;28;20498;-65
2021/07/06 03:42:10;;;;;;;0.10;0.10;;;;;;;32.06;32.39;100085.41;5129835;28;20043;-65
2021/07/06 03:44:36;;;;;;;0.25;0.25;;;;;;;32.15;32.14;100092.19;5130332;27;20051;-65
2021/07/06 03:47:03;;;;;;;0.20;0.20;;;;;;;32.25;32.04;100100.66;5128952;28;20031;-66
2021/07/06 03:49:29;;;;;;;0.10;0.10;;;;;;;32.32;32.04;100093.34;5128938;28;20089;-66
2021/07/06 03:51:55;;;;;;;0.63;0.63;;;;;;;32.44;31.72;100096.97;5128994;28;20039;-66
2021/07/06 03:54:21;;;;;;;0.08;0.08;;;;;;;32.51;31.74;100097.75;5128598;28;20118;-65
2021/07/06 03:56:47;;;;;;;0.10;0.10;;;;;;;32.60;31.44;100101.03;5130169;28;20425;-66
2021/07/06 03:59:13;;;;;;;0.15;0.15;;;;;;;32.69;31.44;100094.31;5129770;27;20510;-66
2021/07/06 04:01:39;;;;;;;0.10;0.10;;;;;;;32.75;31.02;100090.72;5130011;28;20038;-65
2021/07/06 04:04:04;;;;;;;0.10;0.10;;;;;;;32.86;31.00;100104.34;5129795;27;20070;-65
2021/07/06 04:06:31;;;;;;;0.15;0.15;;;;;;;32.96;31.13;100110.06;5130105;28;20039;-64
2021/07/06 04:08:57;;;;;;;0.10;0.10;;;;;;;33.03;30.84;100110.84;5130052;27;20039;-64
2021/07/06 04:11:23;;;;;;;0.10;0.10;;;;;;;33.09;30.96;100110.97;5130324;27;20645;-66
2021/07/06 04:13:49;;;;;;;0.13;0.13;;;;;;;33.13;30.69;100110.34;5130285;27;20047;-66
2021/07/06 04:16:16;;;;;;;0.15;0.15;;;;;;;33.22;30.52;100105.47;5130491;28;20044;-66
2021/07/06 04:18:42;;;;;;;0.10;0.10;;;;;;;33.33;30.37;100105.56;5129926;28;20114;-63
2021/07/06 04:21:13;;;;;;;0.10;0.10;;;;;;;33.34;30.68;100099.09;5129590;27;20039;-68
2021/07/06 04:23:52;;;;;;;0.10;0.10;;;;;;;33.36;30.58;100101.56;5129889;27;20046;-64
2021/07/06 04:26:21;;;;;;;0.30;0.30;;;;;;;33.45;30.18;100105.63;5129889;27;20131;-66
2021/07/06 04:28:49;;;;;;;0.10;0.10;;;;;;;33.52;30.53;100107.19;5097505;27;20062;-67
2021/07/06 04:31:17;;;;;;;0.10;0.10;;;;;;;33.59;30.25;100101.69;5115923;27;20066;-66
2021/07/06 04:33:42;;;;;;;0.10;0.10;;;;;;;33.65;30.11;100095.41;5133527;27;20040;-67
2021/07/06 04:36:09;;;;;;;0.17;0.17;;;;;;;33.76;30.05;100102.78;5133290;27;20043;-67
2021/07/06 04:38:34;;;;;;;0.57;0.47;;;;;;;33.81;29.60;100099.34;5133360;27;20039;-67
2021/07/06 04:41:00;;;;;;;0.17;0.17;;;;;;;33.94;29.52;100113.56;5133270;27;20069;-66
2021/07/06 04:43:26;;;;;;;0.20;0.20;;;;;;;34.02;29.51;100109.72;5131761;27;20050;-66
2021/07/06 04:45:52;;;;;;;0.10;0.10;;;;;;;34.11;29.49;100107.50;5133387;27;20107;-67
2021/07/06 04:48:52;;;;;;;0.10;0.10;;;;;;;34.27;29.54;100112.28;5132953;27;20034;-65
2021/07/06 04:51:44;;;;;;;0.13;0.13;;;;;;;34.46;29.04;100119.28;5131365;27;20046;-67
2021/07/06 04:54:10;;;;;;;0.22;0.22;;;;;;;34.64;28.97;100115.69;5132953;27;20557;-67
2021/07/06 04:56:35;;;;;;;0.17;0.17;;;;;;;34.79;28.65;100108.75;5133192;27;20521;-67
2021/07/06 04:59:02;;;;;;;0.08;0.08;;;;;;;34.97;28.46;100115.94;5132866;27;20035;-66
2021/07/06 05:01:28;;;;;;;0.20;0.20;;;;;;;35.13;28.27;100117.97;5131394;27;20043;-66
2021/07/06 05:03:54;;;;;;;0.03;0.03;;;;;;;35.33;27.80;100120.31;5133006;27;20121;-67
2021/07/06 05:06:20;;;;;;;0.20;0.20;;;;;;;35.62;27.22;100113.91;5132716;27;20091;-66
2021/07/06 05:08:46;;;;;;;0.10;0.10;;;;;;;36.07;26.81;100121.31;5097766;27;20051;-67
2021/07/06 05:11:13;;;;;;;0.10;0.10;;;;;;;36.62;26.23;100114.16;5132720;27;20043;-67
2021/07/06 05:14:01;;;;;;;0.30;0.30;;;;;;;37.29;25.65;100114.09;5132738;27;20090;-67
2021/07/06 05:16:31;;;;;;;0.10;0.10;;;;;;;37.67;25.25;100114.03;5131578;27;20528;-65
2021/07/06 05:18:57;;;;;;;0.10;0.10;;;;;;;38.17;24.71;100118.44;5132661;27;20047;-65
2021/07/06 05:21:24;;;;;;;0.17;0.17;;;;;;;38.34;23.95;100122.69;5132052;27;20421;-66
2021/07/06 05:23:50;;;;;;;0.77;0.77;;;;;;;38.46;23.83;100125.28;5131360;27;20051;-66
2021/07/06 05:26:16;;;;;;;0.20;0.20;;;;;;;38.58;23.69;100134.13;5131096;27;20695;-66
2021/07/06 05:28:42;;;;;;;0.10;0.10;;;;;;;38.58;23.58;100123.22;5132511;27;20042;-67
2021/07/06 05:31:09;;;;;;;0.10;0.10;;;;;;;38.69;23.81;100121.38;5113681;27;20135;-67
2021/07/06 05:33:35;;;;;;;0.30;0.30;;;;;;;38.64;23.38;100135.81;5132281;27;20066;-66
2021/07/06 05:36:01;;;;;;;0.10;0.10;;;;;;;38.53;23.73;100125.88;5132349;27;20027;-66
2021/07/06 05:38:27;;;;;;;0.22;0.22;;;;;;;38.54;23.60;100130.28;5130623;27;20046;-66
2021/07/06 05:40:54;;;;;;;0.20;0.20;;;;;;;38.47;23.85;100127.75;5132330;27;20047;-66
2021/07/06 05:43:23;;;;;;;0.10;0.10;;;;;;;38.44;23.62;100130.19;5131814;27;20067;-66
2021/07/06 05:45:51;;;;;;;0.22;0.22;;;;;;;38.25;23.68;100124.25;5130913;27;20043;-66
2021/07/06 05:48:17;;;;;;;0.50;0.50;;;;;;;38.02;24.22;100119.91;5130435;27;20576;-66
2021/07/06 05:50:43;;;;;;;0.20;0.20;;;;;;;37.74;24.37;100122.84;5130671;27;20138;-67
2021/07/06 05:53:11;;;;;;;0.20;0.20;;;;;;;37.55;24.12;100119.66;5131559;27;20034;-67
2021/07/06 05:55:40;;;;;;;0.45;0.45;;;;;;;37.35;24.59;100135.69;5131952;27;20042;-65
2021/07/06 05:58:06;;;;;;;0.10;0.10;;;;;;;37.05;24.79;100130.66;5131798;27;20076;-65
2021/07/06 06:00:33;;;;;;;0.17;0.17;;;;;;;36.79;24.89;100112.25;5131492;27;20119;-66
2021/07/06 06:03:00;;;;;;;0.10;0.10;;;;;;;36.42;25.28;100130.94;5131757;27;20042;-68
2021/07/06 06:05:26;;;;;;;0.10;0.10;;;;;;;36.07;25.66;100124.03;5131401;27;20223;-66
2021/07/06 06:07:52;;;;;;;0.10;0.10;;;;;;;35.59;26.15;100118.97;5130459;27;20528;-66
2021/07/06 06:10:18;;;;;;;0.10;0.10;;;;;;;35.25;26.66;100136.97;5131273;27;20050;-63
2021/07/06 06:12:45;;;;;;;0.22;0.22;;;;;;;35.04;26.99;100133.78;5131571;27;20490;-65
2021/07/06 06:15:12;;;;;;;0.17;0.17;;;;;;;34.82;27.07;100124.56;5131168;27;20042;-69
2021/07/06 06:17:39;;;;;;;0.10;0.10;;;;;;;34.50;27.36;100128.59;5131622;27;20039;-66
2021/07/06 06:20:06;;;;;;;0.10;0.10;;;;;;;34.35;27.43;100128.22;5131236;27;20046;-63
2021/07/06 06:22:32;;;;;;;0.00;0.00;;;;;;;33.73;28.11;100129.50;5131305;27;20031;-63
2021/07/06 06:24:58;;;;;;;0.00;0.00;;;;;;;33.00;29.00;100130.25;5131242;27;20130;-63
2021/07/06 06:27:24;;;;;;;0.10;0.10;;;;;;;32.48;29.17;100119.84;5131045;27;20118;-63
2021/07/06 06:29:50;;;;;;;0.20;0.20;;;;;;;32.47;29.42;100091.97;5131049;27;20096;-65
2021/07/06 06:32:16;;;;;;;0.10;0.10;;;;;;;32.79;29.23;100122.50;5129654;27;20089;-63
2021/07/06 06:34:43;;;;;;;0.20;0.20;;;;;;;32.94;28.66;100136.53;5131120;27;20039;-63
2021/07/06 06:37:09;;;;;;;0.03;0.03;;;;;;;32.96;28.52;100133.59;5131141;27;20039;-63
2021/07/06 06:39:35;;;;;;;0.25;0.25;;;;;;;32.60;29.01;100145.16;5130871;27;20390;-63
2021/07/06 06:42:01;;;;;;;0.10;0.10;;;;;;;32.33;29.01;100136.34;5130943;27;20111;-63
2021/07/06 06:44:27;;;;;;;0.10;0.10;;;;;;;32.50;28.61;100113.16;5129497;27;20073;-63
2021/07/06 06:46:53;;;;;;;0.00;0.00;;;;;;;32.58;29.01;100112.09;5131150;27;20139;-64
2021/07/06 06:49:19;;;;;;;0.03;0.03;;;;;;;32.57;28.49;100107.72;5129246;27;20027;-63
2021/07/06 06:51:45;;;;;;;0.10;0.10;;;;;;;32.58;28.72;100120.22;5129302;27;20163;-65
2021/07/06 06:54:11;;;;;;;0.10;0.10;;;;;;;32.45;28.69;100152.72;5129650;27;20055;-63
2021/07/06 06:56:40;;;;;;;0.25;0.25;;;;;;;32.43;28.72;100117.78;5129514;27;20051;-63
2021/07/06 06:59:07;;;;;;;0.00;0.00;;;;;;;32.36;28.94;100127.00;5129459;27;20042;-63
2021/07/06 07:01:33;;;;;;;0.17;0.17;;;;;;;32.27;28.76;100122.88;5130651;27;20047;-64
2021/07/06 07:03:59;;;;;;;0.10;0.10;;;;;;;32.20;29.23;100112.13;5129153;27;20118;-63
2021/07/06 07:06:25;;;;;;;0.20;0.20;;;;;;;32.22;28.97;100125.44;5130487;27;20146;-63
2021/07/06 07:08:51;;;;;;;0.10;0.10;;;;;;;32.01;29.44;100129.25;5130646;27;20043;-63
2021/07/06 07:11:16;;;;;;;0.10;0.10;;;;;;;31.98;29.09;100137.78;5130372;27;20214;-62
2021/07/06 07:13:42;;;;;;;0.10;0.10;;;;;;;31.96;29.52;100121.81;5129190;27;20035;-63
2021/07/06 07:16:09;;;;;;;0.00;0.00;;;;;;;31.92;29.25;100131.38;5130534;27;20039;-63
2021/07/06 07:18:35;;;;;;;0.00;0.00;;;;;;;31.86;29.63;100142.22;5130187;27;20046;-63
2021/07/06 07:21:01;;;;;;;0.20;0.20;;;;;;;31.83;29.45;100134.56;5130149;27;20039;-64
2021/07/06 07:23:27;;;;;;;0.10;0.10;;;;;;;31.77;29.58;100132.72;5130356;28;20067;-63
2021/07/06 07:25:53;;;;;;;0.10;0.10;;;;;;;31.70;29.41;100116.53;5130531;27;20457;-63
2021/07/06 07:28:19;;;;;;;0.55;0.55;;;;;;;31.62;29.55;100124.03;5130202;27;20047;-63
2021/07/06 07:30:45;;;;;;;0.00;0.00;;;;;;;31.29;30.14;100124.94;5130149;27;20488;-63
2021/07/06 07:33:11;;;;;;;0.03;0.03;;;;;;;31.18;30.36;100128.31;5130230;28;20039;-63
2021/07/06 07:35:37;;;;;;;0.08;0.08;;;;;;;31.23;30.57;100133.06;5130107;27;20035;-63
2021/07/06 07:38:03;;;;;;;0.28;0.28;;;;;;;31.24;30.74;100132.03;5130354;27;20046;-63
2021/07/06 07:40:29;;;;;;;0.43;0.20;;;;;;;31.25;30.69;100122.91;5130104;28;20043;-63
2021/07/06 07:42:55;;;;;;;0.10;0.10;;;;;;;31.18;30.68;100125.59;5130571;27;20035;-63
2021/07/06 07:45:21;;;;;;;0.10;0.10;;;;;;;31.08;30.63;100127.06;5130082;27;20031;-63
2021/07/06 07:47:47;;;;;;;0.10;0.10;;;;;;;31.09;30.60;100134.09;5130508;27;20062;-63
2021/07/06 07:50:13;;;;;;;0.10;0.10;;;;;;;31.06;30.39;100135.38;5130192;27;20042;-63
2021/07/06 07:52:39;;;;;;;0.10;0.10;;;;;;;31.04;30.52;100128.53;5129858;27;20157;-63
2021/07/06 07:55:06;;;;;;;0.20;0.20;;;;;;;30.92;30.78;100123.72;5130074;27;20414;-63
2021/07/06 07:57:32;;;;;;;0.45;0.45;;;;;;;30.89;30.81;100123.34;5130056;27;20035;-64
2021/07/06 07:59:58;;;;;;;0.20;0.20;;;;;;;30.82;30.87;100111.72;5128691;28;20148;-62
2021/07/06 08:02:24;;;;;;;0.10;0.10;;;;;;;30.74;31.04;100104.66;5130136;27;20096;-64
2021/07/06 08:04:51;;;;;;;0.00;0.00;;;;;;;30.69;30.93;100098.25;5132737;27;20173;-64
2021/07/06 08:07:17;;;;;;;0.15;0.15;;;;;;;30.73;31.13;100124.56;5132758;27;20050;-65
2021/07/06 08:09:43;;;;;;;0.10;0.10;;;;;;;30.74;31.04;100125.41;5133943;27;20043;-63
2021/07/06 08:12:10;;;;;;;0.13;0.13;;;;;;;30.60;30.98;100097.59;5133955;27;20047;-63
2021/07/06 08:14:36;;;;;;;0.10;0.10;;;;;;;30.55;31.25;100113.59;5133859;27;20046;-65
2021/07/06 08:17:02;;;;;;;0.00;0.00;;;;;;;30.47;31.17;100111.09;5132786;27;20036;-63
2021/07/06 08:19:28;;;;;;;0.05;0.05;;;;;;;30.49;31.04;100133.28;5133460;27;20046;-64
2021/07/06 08:21:54;;;;;;;0.00;0.00;;;;;;;30.38;31.20;100120.38;5132356;27;20041;-64
2021/07/06 08:24:21;;;;;;;0.10;0.10;;;;;;;30.28;31.34;100122.63;5133280;27;20046;-63
2021/07/06 08:26:47;;;;;;;0.00;0.00;;;;;;;30.22;31.43;100132.38;5133488;27;20091;-63
2021/07/06 08:29:13;;;;;;;0.10;0.10;;;;;;;30.25;31.48;100117.66;5133400;27;20050;-63
2021/07/06 08:31:39;;;;;;;0.30;0.30;;;;;;;30.13;31.61;100105.84;5131743;27;20043;-63
2021/07/06 08:34:05;;;;;;;0.00;0.00;;;;;;;30.10;31.54;100112.47;5133409;27;20039;-63
2021/07/06 08:36:31;;;;;;;0.00;0.00;;;;;;;30.08;31.70;100125.28;5133384;27;20051;-63
2021/07/06 08:38:57;;;;;;;0.00;0.00;;;;;;;29.97;31.76;100102.47;5133505;27;20058;-64
2021/07/06 08:41:23;;;;;;;0.10;0.10;;;;;;;29.91;31.75;100097.91;5133145;27;20047;-64
2021/07/06 08:43:49;;;;;;;0.00;0.00;;;;;;;29.89;31.88;100126.91;5133377;27;20101;-63
2021/07/06 08:46:19;;;;;;;0.08;0.08;;;;;;;29.83;31.86;100100.78;5132221;27;20073;-64
2021/07/06 08:48:47;;;;;;;0.00;0.00;;;;;;;29.80;31.84;100121.88;5132081;27;20074;-64
2021/07/06 08:51:18;;;;;;;0.10;0.10;;;;;;;29.68;32.21;100110.84;5133278;27;20035;-64
2021/07/06 08:53:45;;;;;;;0.30;0.30;;;;;;;29.62;31.99;100125.09;5132113;27;20160;-64
2021/07/06 08:56:12;;;;;;;0.10;0.10;;;;;;;29.48;31.91;100107.25;5133282;27;20039;-65
2021/07/06 08:58:38;;;;;;;0.08;0.08;;;;;;;29.45;31.95;100102.22;5132994;27;20067;-64
2021/07/06 09:01:04;;;;;;;0.00;0.00;;;;;;;29.50;32.05;100120.50;5132862;27;20043;-64
2021/07/06 09:03:59;;;;;;;0.10;0.10;;;;;;;29.51;31.99;100125.69;5132886;27;20133;-63
2021/07/06 09:06:30;;;;;;;0.00;0.00;;;;;;;29.49;32.29;100119.66;5132768;27;20399;-64
2021/07/06 09:09:18;;;;;;;0.00;0.00;;;;;;;29.46;32.44;100112.81;5132942;27;20578;-64
2021/07/06 09:12:00;;;;;;;0.00;0.00;;;;;;;29.36;32.47;100100.75;5133029;27;20053;-64
2021/07/06 09:14:30;;;;;;;0.10;0.10;;;;;;;29.35;32.59;100101.81;5132054;27;20410;-64
2021/07/06 09:17:18;;;;;;;0.10;0.10;;;;;;;29.37;32.43;100100.56;5132941;27;20039;-63
2021/07/06 09:19:49;;;;;;;0.00;0.00;;;;;;;29.35;32.55;100102.59;5132413;27;20031;-64
2021/07/06 09:22:24;;;;;;;0.10;0.10;;;;;;;29.32;32.64;100102.16;5132571;27;20058;-64
2021/07/06 09:24:57;;;;;;;0.15;0.15;;;;;;;29.27;32.80;100094.72;5132585;27;20462;-63
2021/07/06 09:27:37;;;;;;;0.10;0.10;;;;;;;29.28;32.65;100106.31;5130993;27;20100;-64
2021/07/06 09:30:07;;;;;;;;;;;;;;;29.26;32.89;100100.28;5132648;27;20051;-63
2021/07/06 09:32:34;;;;;;;0.10;0.10;;;;;;;29.22;32.80;100096.31;5132444;27;19923;-63
2021/07/06 09:35:07;;;;;;;0.00;0.00;;;;;;;29.22;32.80;100093.63;5131057;27;20417;-63
2021/07/06 09:37:53;;;;;;;0.00;0.00;;;;;;;29.22;32.88;100102.50;5132136;27;20043;-63
2021/07/06 09:40:35;;;;;;;0.10;0.10;;;;;;;29.21;32.52;100078.50;5131907;27;20031;-63
2021/07/06 09:43:17;;;;;;;0.10;0.10;;;;;;;29.19;32.46;100091.34;5130959;27;20072;-63
2021/07/06 09:45:58;;;;;;;0.10;0.10;;;;;;;29.16;32.34;100087.16;5114070;27;20544;-64
2021/07/06 09:48:24;;;;;;;0.10;0.10;;;;;;;29.19;32.69;100076.00;5131913;27;20122;-66
2021/07/06 09:50:50;;;;;;;0.10;0.10;;;;;;;29.17;32.46;100082.63;5131992;27;20103;-66
2021/07/06 09:53:29;;;;;;;0.10;0.10;;;;;;;29.17;32.36;100082.63;5131960;27;20059;-68
2021/07/06 09:55:56;;;;;;;0.20;0.20;;;;;;;29.18;32.57;100085.13;5131872;27;20145;-65
2021/07/06 09:58:22;;;;;;;0.08;0.08;;;;;;;29.15;32.81;100087.38;5131727;27;20038;-65
2021/07/06 10:00:51;;;;;;;0.10;0.10;;;;;;;29.13;32.76;100086.72;5130484;27;20081;-65
2021/07/06 10:03:18;;;;;;;0.10;0.10;;;;;;;29.13;32.93;100079.50;5131593;27;20527;-65
2021/07/06 10:05:45;;;;;;;0.10;0.10;;;;;;;29.14;32.87;100088.38;5131398;27;20039;-65
2021/07/06 10:08:11;;;;;;;0.00;0.00;;;;;;;29.14;32.68;100083.00;5131676;27;20035;-66
2021/07/06 10:10:37;;;;;;;0.10;0.10;;;;;;;29.19;32.42;100080.56;5131523;27;20063;-66
2021/07/06 10:13:03;;;;;;;0.00;0.00;;;;;;;29.13;32.53;100082.19;5130379;27;20082;-65
2021/07/06 10:15:31;;;;;;;0.00;0.00;;;;;;;29.11;32.67;100072.66;5112946;27;20071;-65
2021/07/06 10:17:57;;;;;;;0.10;0.10;;;;;;;29.10;32.60;100068.28;5130394;27;20035;-66
2021/07/06 10:20:27;;;;;;;0.10;0.10;;;;;;;29.10;32.35;100071.81;5130972;27;20459;-66
2021/07/06 10:22:54;;;;;;;0.03;0.03;;;;;;;29.09;32.62;100058.59;5130371;27;20041;-66
2021/07/06 10:25:28;;;;;;;0.20;0.20;;;;;;;29.13;32.26;100067.91;5129300;27;20583;-66
2021/07/06 10:28:07;;;;;;;0.15;0.15;;;;;;;29.10;32.34;100065.59;5130260;27;20130;-65
2021/07/06 10:30:46;;;;;;;0.10;0.10;;;;;;;29.10;32.05;100082.56;5131105;27;20047;-66
2021/07/06 10:33:27;;;;;;;0.10;0.10;;;;;;;29.09;32.17;100075.53;5130968;27;20039;-66
2021/07/06 10:35:53;;;;;;;0.03;0.03;;;;;;;29.08;32.06;100062.28;5130900;27;20589;-66
2021/07/06 10:38:31;;;;;;;0.00;0.00;;;;;;;29.06;31.89;100061.69;5130951;27;20066;-65
2021/07/06 10:41:12;;;;;;;0.00;0.00;;;;;;;29.06;31.79;100059.78;5131032;27;20055;-64
2021/07/06 10:43:42;;;;;;;0.00;0.00;;;;;;;29.07;32.18;100071.38;5130809;27;20576;-64
2021/07/06 10:46:14;;;;;;;;;;;;;;;29.11;32.03;100056.50;5131217;27;20039;-65
2021/07/06 10:48:42;;;;;;;0.00;0.00;;;;;;;29.12;32.10;100056.34;5130854;27;19919;-65
2021/07/06 10:51:08;;;;;;;0.10;0.10;;;;;;;29.11;32.23;100048.44;5129565;27;20525;-65
2021/07/06 10:53:34;;;;;;;0.10;0.10;;;;;;;29.01;31.81;100043.44;5130660;27;20047;-65
2021/07/06 10:56:06;;;;;;;0.00;0.00;;;;;;;29.06;32.10;100034.78;5130826;27;20154;-67
2021/07/06 10:58:51;;;;;;;0.10;0.10;;;;;;;29.11;32.09;100061.91;5130774;27;20034;-66
2021/07/06 11:01:36;;;;;;;0.00;0.00;;;;;;;29.11;32.06;100053.81;5130602;27;20134;-66
2021/07/06 11:04:06;;;;;;;0.10;0.10;;;;;;;29.11;32.27;100053.81;5112301;27;20038;-66
2021/07/06 11:06:46;;;;;;;;;;;;;;;29.12;32.30;100052.81;5130868;27;20043;-66
2021/07/06 11:09:13;;;;;;;0.15;0.15;;;;;;;29.05;32.11;100036.63;5131387;27;19915;-67
2021/07/06 11:11:39;;;;;;;0.00;0.00;;;;;;;29.09;32.17;100042.44;5129204;27;20035;-67
2021/07/06 11:14:22;;;;;;;0.10;0.10;;;;;;;29.04;32.26;100050.25;5129345;27;20039;-67
2021/07/06 11:17:00;;;;;;;0.10;0.10;;;;;;;29.08;32.14;100046.16;5130387;27;20058;-67
2021/07/06 11:19:40;;;;;;;0.10;0.10;;;;;;;29.03;32.45;100038.66;5130503;27;20035;-66
2021/07/06 11:22:16;;;;;;;0.10;0.10;;;;;;;29.06;32.54;100038.28;5130288;27;20054;-67
2021/07/06 11:24:42;;;;;;;0.10;0.10;;;;;;;29.10;32.43;100046.78;5130063;27;20089;-67
2021/07/06 11:27:08;;;;;;;0.00;0.00;;;;;;;29.10;32.12;100044.09;5130419;28;20047;-68
2021/07/06 11:29:38;;;;;;;0.10;0.10;;;;;;;29.12;32.22;100050.13;5129268;28;20442;-63
2021/07/06 11:32:13;;;;;;;0.00;0.00;;;;;;;29.09;32.14;100042.44;5130034;28;20083;-70